Huvudsida
METAR-TAF:

METAR-TAF

Flygplatser :

Örebro, Sverige

Örebro flygplats

latitud: 59-14N, longitud: 015-03E, höjd: 57 m

Aktuellt väderrapport

Denna rapport gjordes för 21 minuter sedan, klockan 02:20 UTC
Vind 4 kt från sydväst
Temperatur -2°C
Fuktighet 100%
Tryck 1024 hPa
Sikt 10 km eller mer

METAR: ESOE 180220Z AUTO 22004KT 9999 FEW019/// M02/M02 Q1024

Tid: 03:41 (02:41 UTC)

Väderprognos

Denna rapport gjordes för 11 minuter sedan, klockan 02:30 UTC
Prognos gäller från 18 kl. 03 UTC till 18 kl. 08 UTC
Vind 6 kt från väst/sydväst
Sikt 10 km eller mer
Brutna moln på en höjd av 800 ft
Temporärt
från 18 kl. 03 UTC till 18 kl. 08 UTC
Sikt: 2000 m
Spridda moln på en höjd av 600 ft
Brutna moln på en höjd av 2000 ft
fuktdis

TAF: ESOE 180230Z 1803/1808 25006KT 9999 BKN008 TEMPO 1803/1808 2000 BR SCT006 BKN020

Aktuella väderrapporter och prognoser från 4000 flygplatser (METAR- och TAF-rapporter).

De tillgängliga stationerna syns som gula och röda prickar på kartan.

För musen över prickarna för att se namnen på stationerna.

Klicka sedan för att få väderrapporter och prognoser.

För att ändra kartan: Klicka på de gröna knapparna med ett svart kors på för att zooma in; den gröna knappen med ett streck på för att zooma ut; eller på de gröna pilarna för angränsande kartor.


METAR-TAF: